Alamogordo, NM

8:10 PM MDT on April 25, 2018 (GMT -0600)
Alamogordo-White Sands Regional

Weather History for KALM - February, 2013

Change the Weather History Date:

Sunday, February 24, 2013

  Actual Average Record
Temperature  
Mean Temperature 42 °F -  
Max Temperature 55 °F 65 °F 78 °F (2009)
Min Temperature 30 °F 34 °F 14 °F (1965)
Degree Days  
Heating Degree Days 22    
Moisture  
Dew Point 18 °F    
Average Humidity 38    
Maximum Humidity 64    
Minimum Humidity 20    
Precipitation  
Precipitation 0.00 in - - ()
Sea Level Pressure  
Sea Level Pressure 29.75 in    
Wind  
Wind Speed 13 mph (SW)    
Max Wind Speed 30 mph    
Max Gust Speed 43 mph    
Visibility 9 miles    
Events      
Averages and records for this station are not official NWS values.
T = Trace of Precipitation, MM = Missing Value Source: NWS Daily Summary

Daily Weather History Graph

Daily Weather History Graph

Search for Another Location

Airport or City:

Astronomy

Feb. 24, 2013 Rise Set
Actual Time 6:37 AM MST 5:57 PM MST
Civil Twilight 6:12 AM MST 6:22 PM MST
Nautical Twilight 5:43 AM MST 6:50 PM MST
Astronomical Twilight 5:15 AM MST 7:19 PM MST
Moon 5:11 PM MST (2/24) 5:34 AM MST (2/24)
Length of Visible Light 12h 09m
Length of Day
11h 20m
Waxing Gibbous, 99% of the Moon is Illuminated
Feb 24
Waxing Gibbous
Feb 25
Full
Mar 4
Last Quarter
Mar 11
New
Mar 19
First Quarter

Hourly Weather History & Observations

Time (MST) Temp. Windchill Dew Point Humidity Pressure Visibility Wind Dir Wind Speed Gust Speed Precip Events Conditions
12:15 AM 46.4 °F 41.5 °F 19.4 °F 34% 29.79 in 10.0 mi South 10.4 mph - N/A   Clear
12:35 AM 44.6 °F 39.2 °F 17.6 °F 34% 29.79 in 10.0 mi SSE 10.4 mph - N/A   Clear
12:55 AM 44.6 °F 40.2 °F 19.4 °F 37% 29.79 in 10.0 mi South 8.1 mph - N/A   Clear
1:15 AM 44.6 °F 38.4 °F 19.4 °F 37% 29.78 in 10.0 mi SSE 12.7 mph - N/A   Clear
1:35 AM 44.6 °F 38.8 °F 19.4 °F 37% 29.78 in 10.0 mi SSE 11.5 mph - N/A   Clear
1:55 AM 44.6 °F 38.4 °F 19.4 °F 37% 29.77 in 10.0 mi SSE 12.7 mph - N/A   Clear
2:15 AM 46.4 °F 41.1 °F 19.4 °F 34% 29.76 in 10.0 mi SSE 11.5 mph - N/A   Clear
2:55 AM 46.4 °F 41.9 °F 17.6 °F 32% 29.76 in 10.0 mi South 9.2 mph - N/A   Clear
3:15 AM 42.8 °F 38.6 °F 17.6 °F 36% 29.75 in 10.0 mi South 6.9 mph - N/A   Clear
3:35 AM 44.6 °F 39.2 °F 17.6 °F 34% 29.75 in 10.0 mi SSE 10.4 mph - N/A   Clear
3:55 AM 41.0 °F 35.2 °F 17.6 °F 39% 29.74 in 10.0 mi South 9.2 mph - N/A   Clear
4:15 AM 44.6 °F 38.4 °F 17.6 °F 34% 29.75 in 10.0 mi SSE 12.7 mph - N/A   Clear
4:35 AM 42.8 °F 36.6 °F 19.4 °F 39% 29.74 in 10.0 mi SE 11.5 mph - N/A   Clear
4:55 AM 41.0 °F 33.5 °F 23.0 °F 49% 29.74 in 10.0 mi SSE 13.8 mph - N/A   Clear
5:15 AM 41.0 °F 35.2 °F 17.6 °F 39% 29.75 in 10.0 mi SSE 9.2 mph - N/A   Clear
5:35 AM 41.0 °F 35.8 °F 23.0 °F 49% 29.75 in 10.0 mi South 8.1 mph - N/A   Clear
5:55 AM 42.8 °F 37.5 °F 17.6 °F 36% 29.75 in 10.0 mi SSE 9.2 mph - N/A   Clear
6:15 AM 41.0 °F 36.4 °F 14.0 °F 33% 29.74 in 10.0 mi SW 6.9 mph - N/A   Clear
6:35 AM 39.2 °F 34.2 °F 17.6 °F 42% 29.75 in 10.0 mi SSW 6.9 mph - N/A   Clear
6:55 AM 41.0 °F 34.3 °F 17.6 °F 39% 29.74 in 9.0 mi SSE 11.5 mph - N/A   Clear
7:15 AM 41.0 °F 36.4 °F 19.4 °F 42% 29.75 in 10.0 mi South 6.9 mph - N/A   Clear
7:35 AM 42.8 °F 37.0 °F 21.2 °F 42% 29.75 in 10.0 mi SSE 10.4 mph - N/A   Clear
7:55 AM 46.4 °F 41.5 °F 19.4 °F 34% 29.76 in 10.0 mi SSE 10.4 mph - N/A   Clear
8:15 AM 48.2 °F - 21.2 °F 34% 29.76 in 10.0 mi SSE 12.7 mph - N/A   Clear
8:35 AM 50.0 °F - 19.4 °F 30% 29.76 in 9.0 mi South 15.0 mph - N/A   Clear
8:55 AM 51.8 °F - 19.4 °F 28% 29.76 in 10.0 mi South 17.3 mph 23.0 mph N/A   Clear
9:15 AM 53.6 °F - 17.6 °F 24% 29.76 in 10.0 mi SSW 16.1 mph 25.3 mph N/A   Clear
9:35 AM 53.6 °F - 17.6 °F 24% 29.75 in 10.0 mi South 15.0 mph 18.4 mph N/A   Clear
9:55 AM 55.4 °F - 15.8 °F 21% 29.74 in 10.0 mi SW 17.3 mph 31.1 mph N/A   Clear
10:15 AM 55.4 °F - 15.8 °F 21% 29.73 in 10.0 mi SSW 23.0 mph 29.9 mph N/A   Clear
10:35 AM 55.4 °F - 15.8 °F 21% 29.72 in 10.0 mi SW 15.0 mph 25.3 mph N/A   Clear
10:55 AM 55.4 °F - 15.8 °F 21% 29.71 in 10.0 mi WSW 20.7 mph 26.5 mph N/A   Clear
11:15 AM 55.4 °F - 15.8 °F 21% 29.71 in 10.0 mi SSW 21.9 mph 29.9 mph N/A   Clear
11:35 AM 55.4 °F - 15.8 °F 21% 29.70 in 10.0 mi SW 20.7 mph 29.9 mph N/A   Scattered Clouds
11:55 AM 55.4 °F - 15.8 °F 21% 29.68 in 10.0 mi WSW 21.9 mph 26.5 mph N/A   Mostly Cloudy
12:15 PM 55.4 °F - 15.8 °F 21% 29.67 in 10.0 mi WSW 24.2 mph 31.1 mph N/A   Mostly Cloudy
12:35 PM 55.4 °F - 15.8 °F 21% 29.65 in 10.0 mi WSW 19.6 mph 32.2 mph N/A   Mostly Cloudy
12:55 PM 53.6 °F - 15.8 °F 22% 29.65 in 10.0 mi SW 23.0 mph 32.2 mph N/A   Scattered Clouds
1:15 PM 55.4 °F - 19.4 °F 25% 29.66 in 10.0 mi SW 17.3 mph 36.8 mph N/A   Partly Cloudy
1:35 PM 53.6 °F - 17.6 °F 24% 29.63 in 10.0 mi WSW 10.4 mph 24.2 mph N/A   Partly Cloudy
1:55 PM 53.6 °F - 17.6 °F 24% 29.63 in 10.0 mi WSW 11.5 mph - N/A   Scattered Clouds
2:15 PM 51.8 °F - 17.6 °F 26% 29.64 in 1.2 mi West 25.3 mph 40.3 mph N/A   Haze
2:35 PM 50.0 °F - 19.4 °F 30% 29.65 in 3.0 mi West 27.6 mph 35.7 mph N/A   Haze
2:55 PM 48.2 °F - 19.4 °F 32% 29.66 in 5.0 mi West 27.6 mph 42.6 mph N/A   Haze
3:15 PM 50.0 °F - 15.8 °F 26% 29.66 in 4.0 mi West 21.9 mph 32.2 mph N/A   Haze
3:35 PM 50.0 °F - 14.0 °F 24% 29.67 in 4.0 mi West 29.9 mph 39.1 mph N/A   Haze
3:55 PM 48.2 °F - 12.2 °F 24% 29.66 in 5.0 mi West 24.2 mph 33.4 mph N/A   Haze
4:15 PM 46.4 °F 39.0 °F 14.0 °F 27% 29.68 in 5.0 mi West 19.6 mph 25.3 mph N/A   Haze
4:35 PM 46.4 °F 38.7 °F 6.8 °F 20% 29.68 in 4.0 mi West 20.7 mph 32.2 mph N/A   Haze
4:55 PM 46.4 °F 40.4 °F 10.4 °F 23% 29.70 in 5.0 mi NNW 13.8 mph 32.2 mph N/A   Haze
5:15 PM 41.0 °F 32.8 °F 23.0 °F 49% 29.71 in 10.0 mi NNW 16.1 mph - N/A   Clear
5:35 PM 41.0 °F 34.7 °F 23.0 °F 49% 29.73 in 10.0 mi NNW 10.4 mph 16.1 mph N/A   Clear
5:55 PM 37.4 °F 27.8 °F 21.2 °F 52% 29.76 in 8.0 mi WNW 17.3 mph 25.3 mph N/A   Clear
6:15 PM 35.6 °F 25.5 °F 23.0 °F 60% 29.77 in 10.0 mi NW 17.3 mph 25.3 mph N/A   Partly Cloudy
6:35 PM 35.6 °F 27.1 °F 23.0 °F 60% 29.78 in 10.0 mi NNW 12.7 mph 20.7 mph N/A   Mostly Cloudy
6:55 PM 35.6 °F 27.5 °F 23.0 °F 60% 29.79 in 10.0 mi NNW 11.5 mph 20.7 mph N/A   Mostly Cloudy
7:15 PM 35.6 °F 27.1 °F 23.0 °F 60% 29.80 in 10.0 mi North 12.7 mph - N/A   Mostly Cloudy
7:35 PM 35.6 °F 29.9 °F 23.0 °F 60% 29.81 in 10.0 mi North 6.9 mph - N/A   Mostly Cloudy
7:55 PM 35.6 °F 30.7 °F 23.0 °F 60% 29.82 in 10.0 mi North 5.8 mph - N/A   Mostly Cloudy
8:15 PM 37.4 °F 31.4 °F 23.0 °F 56% 29.82 in 10.0 mi North 8.1 mph - N/A   Mostly Cloudy
8:35 PM 37.4 °F 32.8 °F 21.2 °F 52% 29.83 in 10.0 mi NNE 5.8 mph - N/A   Partly Cloudy
8:55 PM 35.6 °F 30.7 °F 19.4 °F 52% 29.83 in 10.0 mi North 5.8 mph - N/A   Clear
9:15 PM 35.6 °F 30.7 °F 19.4 °F 52% 29.84 in 10.0 mi NNW 5.8 mph - N/A   Clear
9:35 PM 33.8 °F 29.6 °F 19.4 °F 56% 29.84 in 10.0 mi NW 4.6 mph - N/A   Clear
9:55 PM 32.0 °F 25.6 °F 19.4 °F 60% 29.85 in 10.0 mi NW 6.9 mph - N/A   Clear
10:15 PM 32.0 °F 25.6 °F 19.4 °F 60% 29.86 in 10.0 mi NW 6.9 mph - N/A   Clear
10:35 PM 32.0 °F 25.6 °F 19.4 °F 60% 29.86 in 10.0 mi NNW 6.9 mph - N/A   Clear
10:55 PM 30.2 °F 24.3 °F 19.4 °F 64% 29.87 in 10.0 mi North 5.8 mph - N/A   Clear
11:15 PM 32.0 °F 24.2 °F 15.8 °F 51% 29.88 in 10.0 mi NNW 9.2 mph - N/A   Clear
11:55 PM 32.0 °F 18.6 °F 21.2 °F 64% 29.90 in 9.0 mi North 25.3 mph 35.7 mph N/A   Scattered Clouds